Time;durP1;ratioP1;P1;durP2;ratioP2;P2;SDS_P1;SDS_P2;PMS_P1;PMS_P2;Temp;Humidity;BMP_temperature;BMP_pressure;BME280_temperature;BME280_humidity;BME280_pressure;Samples;Min_cycle;Max_cycle;Signal;HPM_P1;HPM_P2
2019/09/19 00:01:00;;;;;;;5.200001;2.2;;;;;;;6.28;87.9668;95948.83;;;;
2019/09/19 00:02:04;;;;;;;5.200001;2.2;;;;;;;6.28;87.9668;95948.83;;;;
2019/09/19 00:03:06;;;;;;;5.200001;2.2;;;;;;;6.28;87.9668;95948.83;;;;
2019/09/19 00:04:07;;;;;;;5.200001;2.2;;;;;;;6.28;87.9668;95948.83;;;;
2019/09/19 00:05:09;;;;;;;5.200001;2.2;;;;;;;6.28;87.9668;95948.83;;;;
2019/09/19 00:06:10;;;;;;;5.200001;2.2;;;;;;;6.28;87.9668;95948.83;;;;
2019/09/19 00:07:12;;;;;;;5.200001;2.2;;;;;;;6.28;87.9668;95948.83;;;;
2019/09/19 00:08:13;;;;;;;5.200001;2.2;;;;;;;6.28;87.9668;95948.83;;;;
2019/09/19 00:09:26;;;;;;;4.45;2.1;;;;;;;5.82;86.63086;95938.55;;;;
2019/09/19 00:10:27;;;;;;;4.45;2.1;;;;;;;5.82;86.63086;95938.55;;;;
2019/09/19 00:11:28;;;;;;;4.45;2.1;;;;;;;5.82;86.63086;95938.55;;;;
2019/09/19 00:12:30;;;;;;;4.35;2;;;;;;;5.77;87.2959;95943.55;;;;
2019/09/19 00:13:31;;;;;;;4.35;2;;;;;;;5.77;87.2959;95943.55;;;;
2019/09/19 00:14:32;;;;;;;3.85;1.8;;;;;;;5.8;87.64941;95941.01;;;;
2019/09/19 00:15:33;;;;;;;3.85;1.8;;;;;;;5.8;87.64941;95941.01;;;;
2019/09/19 00:16:36;;;;;;;3.85;1.8;;;;;;;5.8;87.64941;95941.01;;;;
2019/09/19 00:17:37;;;;;;;3.45;1.85;;;;;;;5.81;87.875;95939.47;;;;
2019/09/19 00:18:39;;;;;;;3.45;1.85;;;;;;;5.81;87.875;95939.47;;;;
2019/09/19 00:19:40;;;;;;;6.250001;2.2;;;;;;;5.82;87.90625;95937.13;;;;
2019/09/19 00:20:41;;;;;;;6.250001;2.2;;;;;;;5.82;87.90625;95937.13;;;;
2019/09/19 00:21:43;;;;;;;6.250001;2.2;;;;;;;5.82;87.90625;95937.13;;;;
2019/09/19 00:22:44;;;;;;;5;1.9;;;;;;;5.83;88.01367;95934.37;;;;
2019/09/19 00:23:45;;;;;;;5;1.9;;;;;;;5.83;88.01367;95934.37;;;;
2019/09/19 00:24:46;;;;;;;5;1.9;;;;;;;5.83;88.01367;95934.37;;;;
2019/09/19 00:25:47;;;;;;;5;1.9;;;;;;;5.83;88.01367;95934.37;;;;
2019/09/19 00:26:49;;;;;;;5;1.9;;;;;;;5.83;88.01367;95934.37;;;;
2019/09/19 00:27:50;;;;;;;5;1.9;;;;;;;5.83;88.01367;95934.37;;;;
2019/09/19 00:28:51;;;;;;;5;1.9;;;;;;;5.83;88.01367;95934.37;;;;
2019/09/19 00:29:54;;;;;;;5;1.9;;;;;;;5.83;88.01367;95934.37;;;;
2019/09/19 00:30:55;;;;;;;5;1.9;;;;;;;5.83;88.01367;95934.37;;;;
2019/09/19 00:31:56;;;;;;;5;1.9;;;;;;;5.83;88.01367;95934.37;;;;
2019/09/19 00:32:58;;;;;;;5.550001;2;;;;;;;5.44;86.6377;95921.44;;;;
2019/09/19 00:33:59;;;;;;;5.550001;2;;;;;;;5.44;86.6377;95921.44;;;;
2019/09/19 00:35:00;;;;;;;5.550001;2;;;;;;;5.44;86.6377;95921.44;;;;
2019/09/19 00:36:01;;;;;;;5.15;2.1;;;;;;;5.41;87.35059;95924.01;;;;
2019/09/19 00:37:03;;;;;;;5.15;2.1;;;;;;;5.41;87.35059;95924.01;;;;
2019/09/19 00:38:04;;;;;;;5.15;2.1;;;;;;;5.41;87.35059;95924.01;;;;
2019/09/19 00:39:08;;;;;;;5.15;2.1;;;;;;;5.41;87.35059;95924.01;;;;
2019/09/19 00:40:12;;;;;;;5.15;2.1;;;;;;;5.41;87.35059;95924.01;;;;
2019/09/19 00:41:14;;;;;;;5.15;2.1;;;;;;;5.41;87.35059;95924.01;;;;
2019/09/19 00:42:18;;;;;;;5.15;2.1;;;;;;;5.41;87.35059;95924.01;;;;
2019/09/19 00:43:19;;;;;;;5.15;2.1;;;;;;;5.41;87.35059;95924.01;;;;
2019/09/19 00:44:20;;;;;;;5.15;2.1;;;;;;;5.41;87.35059;95924.01;;;;
2019/09/19 00:45:21;;;;;;;5.15;2.1;;;;;;;5.41;87.35059;95924.01;;;;
2019/09/19 00:46:23;;;;;;;4.55;1.95;;;;;;;5.14;86.25293;95923.36;;;;
2019/09/19 00:47:25;;;;;;;4.55;1.95;;;;;;;5.14;86.25293;95923.36;;;;
2019/09/19 00:48:26;;;;;;;4.55;1.95;;;;;;;5.14;86.25293;95923.36;;;;
2019/09/19 00:49:27;;;;;;;4.15;1.75;;;;;;;5.14;87.08496;95925.62;;;;
2019/09/19 00:50:29;;;;;;;4.15;1.75;;;;;;;5.14;87.08496;95925.62;;;;
2019/09/19 00:51:30;;;;;;;6.050001;2.05;;;;;;;5.18;87.53613;95918.36;;;;
2019/09/19 00:52:31;;;;;;;6.050001;2.05;;;;;;;5.18;87.53613;95918.36;;;;
2019/09/19 00:53:33;;;;;;;6.050001;2.05;;;;;;;5.18;87.53613;95918.36;;;;
2019/09/19 00:54:34;;;;;;;4.299999;1.95;;;;;;;5.22;87.84766;95917.47;;;;
2019/09/19 00:55:35;;;;;;;4.299999;1.95;;;;;;;5.22;87.84766;95917.47;;;;
2019/09/19 00:56:36;;;;;;;4.299999;1.95;;;;;;;5.22;87.84766;95917.47;;;;
2019/09/19 00:57:38;;;;;;;4.95;2.2;;;;;;;5.26;88.0127;95924.11;;;;
2019/09/19 00:58:39;;;;;;;4.95;2.2;;;;;;;5.26;88.0127;95924.11;;;;
2019/09/19 00:59:40;;;;;;;3.7;1.95;;;;;;;5.28;88.30273;95918.91;;;;
2019/09/19 01:00:41;;;;;;;3.7;1.95;;;;;;;5.28;88.30273;95918.91;;;;
2019/09/19 01:01:43;;;;;;;3.7;1.95;;;;;;;5.28;88.30273;95918.91;;;;
2019/09/19 01:02:44;;;;;;;3.7;1.95;;;;;;;5.28;88.30273;95918.91;;;;
2019/09/19 01:03:45;;;;;;;3.7;1.95;;;;;;;5.28;88.30273;95918.91;;;;
2019/09/19 01:04:50;;;;;;;3.7;1.95;;;;;;;5.28;88.30273;95918.91;;;;
2019/09/19 01:05:52;;;;;;;3.7;1.95;;;;;;;5.28;88.30273;95918.91;;;;
2019/09/19 01:06:53;;;;;;;3.7;1.95;;;;;;;5.28;88.30273;95918.91;;;;
2019/09/19 01:07:54;;;;;;;3.7;1.95;;;;;;;5.28;88.30273;95918.91;;;;
2019/09/19 01:08:55;;;;;;;3.7;1.95;;;;;;;5.28;88.30273;95918.91;;;;
2019/09/19 01:09:57;;;;;;;3.3;1.8;;;;;;;4.97;86.97461;95919.72;;;;
2019/09/19 01:10:59;;;;;;;3.3;1.8;;;;;;;4.97;86.97461;95919.72;;;;
2019/09/19 01:12:31;;;;;;;3.3;1.8;;;;;;;4.97;86.97461;95919.72;;;;
2019/09/19 01:13:33;;;;;;;4.1;1.95;;;;;;;4.95;87.75195;95916.31;;;;
2019/09/19 01:14:34;;;;;;;4.1;1.95;;;;;;;4.95;87.75195;95916.31;;;;
2019/09/19 01:15:35;;;;;;;4.1;1.95;;;;;;;4.95;87.75195;95916.31;;;;
2019/09/19 01:16:36;;;;;;;4.1;1.95;;;;;;;4.95;87.75195;95916.31;;;;
2019/09/19 01:17:38;;;;;;;4.1;1.95;;;;;;;4.95;87.75195;95916.31;;;;
2019/09/19 01:18:39;;;;;;;4.1;1.95;;;;;;;4.95;87.75195;95916.31;;;;
2019/09/19 01:19:40;;;;;;;4.1;1.95;;;;;;;4.95;87.75195;95916.31;;;;
2019/09/19 01:20:41;;;;;;;4.1;1.95;;;;;;;4.95;87.75195;95916.31;;;;
2019/09/19 01:21:42;;;;;;;4.1;1.95;;;;;;;4.95;87.75195;95916.31;;;;
2019/09/19 01:22:44;;;;;;;4.1;1.95;;;;;;;4.95;87.75195;95916.31;;;;
2019/09/19 01:23:45;;;;;;;3.3;1.9;;;;;;;4.73;86.82422;95921.67;;;;
2019/09/19 01:24:46;;;;;;;3.3;1.9;;;;;;;4.73;86.82422;95921.67;;;;
2019/09/19 01:25:47;;;;;;;4.05;1.9;;;;;;;4.73;87.60254;95920.33;;;;
2019/09/19 01:26:49;;;;;;;4.05;1.9;;;;;;;4.73;87.60254;95920.33;;;;
2019/09/19 01:27:50;;;;;;;4.05;1.9;;;;;;;4.73;87.60254;95920.33;;;;
2019/09/19 01:28:51;;;;;;;3.65;1.95;;;;;;;4.79;88.11816;95924.11;;;;
2019/09/19 01:29:52;;;;;;;3.65;1.95;;;;;;;4.79;88.11816;95924.11;;;;
2019/09/19 01:30:54;;;;;;;3.65;1.95;;;;;;;4.79;88.11816;95924.11;;;;
2019/09/19 01:31:55;;;;;;;3.4;1.95;;;;;;;4.83;88.55762;95917.39;;;;
2019/09/19 01:32:56;;;;;;;3.4;1.95;;;;;;;4.83;88.55762;95917.39;;;;
2019/09/19 01:33:57;;;;;;;3.4;1.95;;;;;;;4.83;88.55762;95917.39;;;;
2019/09/19 01:34:59;;;;;;;3.4;1.95;;;;;;;4.83;88.55762;95917.39;;;;
2019/09/19 01:36:00;;;;;;;3.4;1.95;;;;;;;4.83;88.55762;95917.39;;;;
2019/09/19 01:37:01;;;;;;;3.4;1.95;;;;;;;4.83;88.55762;95917.39;;;;
2019/09/19 01:38:03;;;;;;;3.4;1.95;;;;;;;4.83;88.55762;95917.39;;;;
2019/09/19 01:39:04;;;;;;;3.4;1.95;;;;;;;4.83;88.55762;95917.39;;;;
2019/09/19 01:40:12;;;;;;;3.4;1.95;;;;;;;4.83;88.55762;95917.39;;;;
2019/09/19 01:41:14;;;;;;;3.4;1.95;;;;;;;4.83;88.55762;95917.39;;;;
2019/09/19 01:42:19;;;;;;;3.4;1.8;;;;;;;4.6;87.31055;95932.28;;;;
2019/09/19 01:43:20;;;;;;;3.4;1.8;;;;;;;4.6;87.31055;95932.28;;;;
2019/09/19 01:44:21;;;;;;;4.95;2.3;;;;;;;4.6;88.18359;95934.03;;;;
2019/09/19 01:45:23;;;;;;;4.95;2.3;;;;;;;4.6;88.18359;95934.03;;;;
2019/09/19 01:46:24;;;;;;;4.95;2.3;;;;;;;4.6;88.18359;95934.03;;;;
2019/09/19 01:47:26;;;;;;;4.95;2.3;;;;;;;4.6;88.18359;95934.03;;;;
2019/09/19 01:48:27;;;;;;;4.95;2.3;;;;;;;4.6;88.18359;95934.03;;;;
2019/09/19 01:49:28;;;;;;;4.95;2.3;;;;;;;4.6;88.18359;95934.03;;;;
2019/09/19 01:50:30;;;;;;;4.95;2.3;;;;;;;4.6;88.18359;95934.03;;;;
2019/09/19 01:51:52;;;;;;;4.95;2.3;;;;;;;4.6;88.18359;95934.03;;;;
2019/09/19 01:52:54;;;;;;;4.95;2.3;;;;;;;4.6;88.18359;95934.03;;;;
2019/09/19 01:53:55;;;;;;;4.95;2.3;;;;;;;4.6;88.18359;95934.03;;;;
2019/09/19 01:54:57;;;;;;;4.4;2;;;;;;;4.46;87.31348;95927.75;;;;
2019/09/19 01:55:58;;;;;;;4.4;2;;;;;;;4.46;87.31348;95927.75;;;;
2019/09/19 01:56:59;;;;;;;4.4;2;;;;;;;4.46;87.31348;95927.75;;;;
2019/09/19 01:58:00;;;;;;;3.85;1.95;;;;;;;4.47;88.1582;95929.82;;;;
2019/09/19 01:59:01;;;;;;;3.85;1.95;;;;;;;4.47;88.1582;95929.82;;;;
2019/09/19 02:00:03;;;;;;;3.85;1.95;;;;;;;4.47;88.1582;95929.82;;;;
2019/09/19 02:01:05;;;;;;;3.85;1.95;;;;;;;4.47;88.1582;95929.82;;;;
2019/09/19 02:02:09;;;;;;;3.85;1.95;;;;;;;4.47;88.1582;95929.82;;;;
2019/09/19 02:03:10;;;;;;;3.85;1.95;;;;;;;4.47;88.1582;95929.82;;;;
2019/09/19 02:04:11;;;;;;;3.85;1.95;;;;;;;4.47;88.1582;95929.82;;;;
2019/09/19 02:05:13;;;;;;;3.85;1.95;;;;;;;4.47;88.1582;95929.82;;;;
2019/09/19 02:06:15;;;;;;;3.85;1.95;;;;;;;4.47;88.1582;95929.82;;;;
2019/09/19 02:07:17;;;;;;;3.85;1.95;;;;;;;4.47;88.1582;95929.82;;;;
2019/09/19 02:08:18;;;;;;;3.199999;1.75;;;;;;;4.36;87.1377;95943.2;;;;
2019/09/19 02:09:19;;;;;;;3.199999;1.75;;;;;;;4.36;87.1377;95943.2;;;;
2019/09/19 02:10:20;;;;;;;3.199999;1.75;;;;;;;4.36;87.1377;95943.2;;;;
2019/09/19 02:11:28;;;;;;;4.1;2;;;;;;;4.37;88.01074;95935.94;;;;
2019/09/19 02:12:29;;;;;;;4.1;2;;;;;;;4.37;88.01074;95935.94;;;;
2019/09/19 02:13:30;;;;;;;4.1;2;;;;;;;4.37;88.01074;95935.94;;;;
2019/09/19 02:14:32;;;;;;;4.1;2;;;;;;;4.37;88.01074;95935.94;;;;
2019/09/19 02:15:33;;;;;;;4.1;2;;;;;;;4.37;88.01074;95935.94;;;;
2019/09/19 02:16:34;;;;;;;4.1;2;;;;;;;4.37;88.01074;95935.94;;;;
2019/09/19 02:17:35;;;;;;;4.1;2;;;;;;;4.37;88.01074;95935.94;;;;
2019/09/19 02:18:36;;;;;;;4.1;2;;;;;;;4.37;88.01074;95935.94;;;;
2019/09/19 02:19:38;;;;;;;4.1;2;;;;;;;4.37;88.01074;95935.94;;;;
2019/09/19 02:20:40;;;;;;;4.1;2;;;;;;;4.37;88.01074;95935.94;;;;
2019/09/19 02:21:41;;;;;;;3.2;1.75;;;;;;;4.25;87.03223;95937.3;;;;
2019/09/19 02:22:42;;;;;;;3.2;1.75;;;;;;;4.25;87.03223;95937.3;;;;
2019/09/19 02:23:43;;;;;;;3.2;1.75;;;;;;;4.25;87.03223;95937.3;;;;
2019/09/19 02:24:45;;;;;;;3.1;1.9;;;;;;;4.28;87.89941;95934.78;;;;
2019/09/19 02:25:46;;;;;;;3.1;1.9;;;;;;;4.28;87.89941;95934.78;;;;
2019/09/19 02:26:53;;;;;;;3.1;1.9;;;;;;;4.28;87.89941;95934.78;;;;
2019/09/19 02:27:55;;;;;;;3.1;1.9;;;;;;;4.28;87.89941;95934.78;;;;
2019/09/19 02:28:56;;;;;;;3.1;1.9;;;;;;;4.28;87.89941;95934.78;;;;
2019/09/19 02:29:57;;;;;;;3.1;1.9;;;;;;;4.28;87.89941;95934.78;;;;
2019/09/19 02:30:59;;;;;;;3.1;1.9;;;;;;;4.28;87.89941;95934.78;;;;
2019/09/19 02:32:01;;;;;;;3.1;1.9;;;;;;;4.28;87.89941;95934.78;;;;
2019/09/19 02:33:02;;;;;;;3.1;1.9;;;;;;;4.28;87.89941;95934.78;;;;
2019/09/19 02:34:04;;;;;;;3.1;1.9;;;;;;;4.28;87.89941;95934.78;;;;
2019/09/19 02:35:06;;;;;;;3;1.75;;;;;;;4.17;87.04688;95938.79;;;;
2019/09/19 02:36:07;;;;;;;3;1.75;;;;;;;4.17;87.04688;95938.79;;;;
2019/09/19 02:37:13;;;;;;;3;1.75;;;;;;;4.17;87.04688;95938.79;;;;
2019/09/19 02:38:14;;;;;;;5.5;2;;;;;;;4.19;87.92383;95939.34;;;;
2019/09/19 02:39:15;;;;;;;5.5;2;;;;;;;4.19;87.92383;95939.34;;;;
2019/09/19 02:40:17;;;;;;;5.5;2;;;;;;;4.19;87.92383;95939.34;;;;
2019/09/19 02:41:20;;;;;;;5.5;2;;;;;;;4.19;87.92383;95939.34;;;;
2019/09/19 02:42:21;;;;;;;5.5;2;;;;;;;4.19;87.92383;95939.34;;;;
2019/09/19 02:43:23;;;;;;;5.5;2;;;;;;;4.19;87.92383;95939.34;;;;
2019/09/19 02:44:24;;;;;;;5.5;2;;;;;;;4.19;87.92383;95939.34;;;;
2019/09/19 02:45:26;;;;;;;5.5;2;;;;;;;4.19;87.92383;95939.34;;;;
2019/09/19 02:46:35;;;;;;;5.5;2;;;;;;;4.19;87.92383;95939.34;;;;
2019/09/19 02:48:50;;;;;;;4.05;1.75;;;;;;;4.09;86.96875;95934.36;;;;
2019/09/19 02:49:52;;;;;;;4.05;1.75;;;;;;;4.09;86.96875;95934.36;;;;
2019/09/19 02:50:53;;;;;;;4.05;2;;;;;;;4.12;87.81445;95937.08;;;;
2019/09/19 02:51:54;;;;;;;4.05;2;;;;;;;4.12;87.81445;95937.08;;;;
2019/09/19 02:52:56;;;;;;;4.05;2;;;;;;;4.12;87.81445;95937.08;;;;
2019/09/19 02:53:58;;;;;;;4.05;2;;;;;;;4.12;87.81445;95937.08;;;;
2019/09/19 02:55:11;;;;;;;4.05;2;;;;;;;4.12;87.81445;95937.08;;;;
2019/09/19 02:56:16;;;;;;;4.05;2;;;;;;;4.12;87.81445;95937.08;;;;
2019/09/19 03:02:17;;;;;;;3.45;1.9;;;;;;;3.99;86.92871;95944.86;;;;
2019/09/19 03:03:19;;;;;;;3.45;1.9;;;;;;;3.99;86.92871;95944.86;;;;
2019/09/19 03:04:20;;;;;;;3.45;1.9;;;;;;;3.99;86.92871;95944.86;;;;
2019/09/19 03:05:21;;;;;;;3.45;1.9;;;;;;;3.99;86.92871;95944.86;;;;
2019/09/19 03:06:24;;;;;;;3.45;1.9;;;;;;;3.99;86.92871;95944.86;;;;
2019/09/19 03:07:25;;;;;;;3.45;1.9;;;;;;;3.99;86.92871;95944.86;;;;
2019/09/19 03:08:26;;;;;;;3.45;1.9;;;;;;;3.99;86.92871;95944.86;;;;
2019/09/19 03:09:28;;;;;;;3.45;1.9;;;;;;;3.99;86.92871;95944.86;;;;
2019/09/19 03:10:29;;;;;;;3.45;1.9;;;;;;;3.99;86.92871;95944.86;;;;
2019/09/19 03:11:31;;;;;;;3.45;1.9;;;;;;;3.99;86.92871;95944.86;;;;
2019/09/19 03:12:32;;;;;;;9.25;2.15;;;;;;;3.92;86.49316;95947.92;;;;
2019/09/19 03:13:34;;;;;;;9.25;2.15;;;;;;;3.92;86.49316;95947.92;;;;
2019/09/19 03:14:35;;;;;;;9.25;2.15;;;;;;;3.92;86.49316;95947.92;;;;
2019/09/19 03:15:36;;;;;;;9.25;2.15;;;;;;;3.92;86.49316;95947.92;;;;
2019/09/19 03:17:12;;;;;;;9.25;2.15;;;;;;;3.92;86.49316;95947.92;;;;
2019/09/19 03:18:13;;;;;;;9.25;2.15;;;;;;;3.92;86.49316;95947.92;;;;
2019/09/19 03:19:15;;;;;;;9.25;2.15;;;;;;;3.92;86.49316;95947.92;;;;
2019/09/19 03:20:16;;;;;;;9.25;2.15;;;;;;;3.92;86.49316;95947.92;;;;
2019/09/19 03:21:19;;;;;;;9.25;2.15;;;;;;;3.92;86.49316;95947.92;;;;
2019/09/19 03:22:24;;;;;;;5.05;2.05;;;;;;;3.83;86.13672;95953.11;;;;
2019/09/19 03:23:26;;;;;;;5.05;2.05;;;;;;;3.83;86.13672;95953.11;;;;
2019/09/19 03:24:27;;;;;;;5.05;2.05;;;;;;;3.83;86.13672;95953.11;;;;
2019/09/19 03:25:28;;;;;;;3.75;2;;;;;;;3.88;87.07324;95955.99;;;;
2019/09/19 03:26:30;;;;;;;3.75;2;;;;;;;3.88;87.07324;95955.99;;;;
2019/09/19 03:27:32;;;;;;;3.75;2;;;;;;;3.88;87.07324;95955.99;;;;
2019/09/19 03:28:33;;;;;;;3.75;2;;;;;;;3.88;87.07324;95955.99;;;;
2019/09/19 03:29:34;;;;;;;3.75;2;;;;;;;3.88;87.07324;95955.99;;;;
2019/09/19 03:30:36;;;;;;;3.75;2;;;;;;;3.88;87.07324;95955.99;;;;
2019/09/19 03:31:42;;;;;;;3.75;2;;;;;;;3.88;87.07324;95955.99;;;;
2019/09/19 03:32:44;;;;;;;3.75;2;;;;;;;3.88;87.07324;95955.99;;;;
2019/09/19 03:33:45;;;;;;;3.75;2;;;;;;;3.88;87.07324;95955.99;;;;
2019/09/19 03:34:48;;;;;;;3.75;2;;;;;;;3.88;87.07324;95955.99;;;;
2019/09/19 03:35:49;;;;;;;4;2.2;;;;;;;3.85;86.4043;95956.33;;;;
2019/09/19 03:36:50;;;;;;;4;2.2;;;;;;;3.85;86.4043;95956.33;;;;
2019/09/19 03:37:55;;;;;;;4;2.2;;;;;;;3.85;86.4043;95956.33;;;;
2019/09/19 03:38:56;;;;;;;3.9;2.2;;;;;;;3.89;87.2627;95961.72;;;;
2019/09/19 03:40:00;;;;;;;3.9;2.2;;;;;;;3.89;87.2627;95961.72;;;;
2019/09/19 03:41:03;;;;;;;3.9;2.2;;;;;;;3.89;87.2627;95961.72;;;;
2019/09/19 03:42:05;;;;;;;3.9;2.2;;;;;;;3.89;87.2627;95961.72;;;;
2019/09/19 03:43:07;;;;;;;3.9;2.2;;;;;;;3.89;87.2627;95961.72;;;;
2019/09/19 03:44:09;;;;;;;3.9;2.2;;;;;;;3.89;87.2627;95961.72;;;;
2019/09/19 03:45:13;;;;;;;3.9;2.2;;;;;;;3.89;87.2627;95961.72;;;;
2019/09/19 03:46:27;;;;;;;3.9;2.2;;;;;;;3.89;87.2627;95961.72;;;;
2019/09/19 03:47:45;;;;;;;3.9;2.2;;;;;;;3.89;87.2627;95961.72;;;;
2019/09/19 03:48:46;;;;;;;3.9;2.2;;;;;;;3.89;87.2627;95961.72;;;;
2019/09/19 03:49:48;;;;;;;3.3;1.85;;;;;;;3.85;86.51855;95956.44;;;;
2019/09/19 03:50:49;;;;;;;3.3;1.85;;;;;;;3.85;86.51855;95956.44;;;;
2019/09/19 03:51:51;;;;;;;8.9;2.8;;;;;;;3.91;87.44434;95954.37;;;;
2019/09/19 03:52:52;;;;;;;8.9;2.8;;;;;;;3.91;87.44434;95954.37;;;;
2019/09/19 03:53:53;;;;;;;8.9;2.8;;;;;;;3.91;87.44434;95954.37;;;;
2019/09/19 03:54:54;;;;;;;8.9;2.8;;;;;;;3.91;87.44434;95954.37;;;;
2019/09/19 03:55:56;;;;;;;8.9;2.8;;;;;;;3.91;87.44434;95954.37;;;;
2019/09/19 03:56:57;;;;;;;8.9;2.8;;;;;;;3.91;87.44434;95954.37;;;;
2019/09/19 03:57:58;;;;;;;8.9;2.8;;;;;;;3.91;87.44434;95954.37;;;;
2019/09/19 03:59:00;;;;;;;8.9;2.8;;;;;;;3.91;87.44434;95954.37;;;;
2019/09/19 04:00:01;;;;;;;8.9;2.8;;;;;;;3.91;87.44434;95954.37;;;;
2019/09/19 04:01:05;;;;;;;8.9;2.8;;;;;;;3.91;87.44434;95954.37;;;;
2019/09/19 04:02:17;;;;;;;3.85;2.299999;;;;;;;3.91;86.59668;95967.22;;;;
2019/09/19 04:03:19;;;;;;;3.85;2.299999;;;;;;;3.91;86.59668;95967.22;;;;
2019/09/19 04:04:20;;;;;;;3.85;2.299999;;;;;;;3.91;86.59668;95967.22;;;;
2019/09/19 04:05:22;;;;;;;6.2;2.4;;;;;;;3.96;87.50684;95968.43;;;;
2019/09/19 04:06:42;;;;;;;6.2;2.4;;;;;;;3.96;87.50684;95968.43;;;;
2019/09/19 04:07:46;;;;;;;6.2;2.4;;;;;;;3.96;87.50684;95968.43;;;;
2019/09/19 04:08:48;;;;;;;6.2;2.4;;;;;;;3.96;87.50684;95968.43;;;;
2019/09/19 04:09:49;;;;;;;6.2;2.4;;;;;;;3.96;87.50684;95968.43;;;;
2019/09/19 04:10:50;;;;;;;6.2;2.4;;;;;;;3.96;87.50684;95968.43;;;;
2019/09/19 04:11:51;;;;;;;6.2;2.4;;;;;;;3.96;87.50684;95968.43;;;;
2019/09/19 04:12:53;;;;;;;6.2;2.4;;;;;;;3.96;87.50684;95968.43;;;;
2019/09/19 04:13:54;;;;;;;6.2;2.4;;;;;;;3.96;87.50684;95968.43;;;;
2019/09/19 04:14:55;;;;;;;6.2;2.4;;;;;;;3.96;87.50684;95968.43;;;;
2019/09/19 04:15:56;;;;;;;5.4;2.4;;;;;;;3.93;86.71582;95975.9;;;;
2019/09/19 04:17:04;;;;;;;5.4;2.4;;;;;;;3.93;86.71582;95975.9;;;;
2019/09/19 04:18:06;;;;;;;5.1;2.35;;;;;;;3.97;87.65918;95972.28;;;;
2019/09/19 04:19:07;;;;;;;5.1;2.35;;;;;;;3.97;87.65918;95972.28;;;;
2019/09/19 04:20:08;;;;;;;5.1;2.35;;;;;;;3.97;87.65918;95972.28;;;;
2019/09/19 04:21:10;;;;;;;5.1;2.35;;;;;;;3.97;87.65918;95972.28;;;;
2019/09/19 04:22:11;;;;;;;5.1;2.35;;;;;;;3.97;87.65918;95972.28;;;;
2019/09/19 04:23:13;;;;;;;5.1;2.35;;;;;;;3.97;87.65918;95972.28;;;;
2019/09/19 04:24:14;;;;;;;5.1;2.35;;;;;;;3.97;87.65918;95972.28;;;;
2019/09/19 04:25:16;;;;;;;5.1;2.35;;;;;;;3.97;87.65918;95972.28;;;;
2019/09/19 04:26:17;;;;;;;5.1;2.35;;;;;;;3.97;87.65918;95972.28;;;;
2019/09/19 04:27:19;;;;;;;5.1;2.35;;;;;;;3.97;87.65918;95972.28;;;;
2019/09/19 04:28:20;;;;;;;5.1;2.35;;;;;;;3.97;87.65918;95972.28;;;;
2019/09/19 04:29:21;;;;;;;4.449999;2.4;;;;;;;3.92;86.90234;95975.97;;;;
2019/09/19 04:30:23;;;;;;;4.449999;2.4;;;;;;;3.92;86.90234;95975.97;;;;
2019/09/19 04:31:33;;;;;;;6.550001;2.5;;;;;;;3.96;87.81152;95973.39;;;;
2019/09/19 04:32:57;;;;;;;6.550001;2.5;;;;;;;3.96;87.81152;95973.39;;;;
2019/09/19 04:33:58;;;;;;;6.550001;2.5;;;;;;;3.96;87.81152;95973.39;;;;
2019/09/19 04:34:59;;;;;;;6.550001;2.5;;;;;;;3.96;87.81152;95973.39;;;;
2019/09/19 04:36:00;;;;;;;6.550001;2.5;;;;;;;3.96;87.81152;95973.39;;;;
2019/09/19 04:37:02;;;;;;;6.550001;2.5;;;;;;;3.96;87.81152;95973.39;;;;
2019/09/19 04:38:04;;;;;;;6.550001;2.5;;;;;;;3.96;87.81152;95973.39;;;;
2019/09/19 04:39:05;;;;;;;6.550001;2.5;;;;;;;3.96;87.81152;95973.39;;;;
2019/09/19 04:40:12;;;;;;;6.550001;2.5;;;;;;;3.96;87.81152;95973.39;;;;
2019/09/19 04:41:15;;;;;;;6.550001;2.5;;;;;;;3.96;87.81152;95973.39;;;;
2019/09/19 04:42:16;;;;;;;4.05;2.5;;;;;;;3.9;87.10938;95981.99;;;;
2019/09/19 04:43:17;;;;;;;4.05;2.5;;;;;;;3.9;87.10938;95981.99;;;;
2019/09/19 04:44:19;;;;;;;4.05;2.5;;;;;;;3.9;87.10938;95981.99;;;;
2019/09/19 04:45:20;;;;;;;4.05;2.5;;;;;;;3.9;87.10938;95981.99;;;;
2019/09/19 04:46:22;;;;;;;4.05;2.5;;;;;;;3.9;87.10938;95981.99;;;;
2019/09/19 04:47:24;;;;;;;4.05;2.5;;;;;;;3.9;87.10938;95981.99;;;;
2019/09/19 04:48:25;;;;;;;4.05;2.5;;;;;;;3.9;87.10938;95981.99;;;;
2019/09/19 04:49:26;;;;;;;4.05;2.5;;;;;;;3.9;87.10938;95981.99;;;;
2019/09/19 04:50:27;;;;;;;4.05;2.5;;;;;;;3.9;87.10938;95981.99;;;;
2019/09/19 04:51:29;;;;;;;4.05;2.5;;;;;;;3.9;87.10938;95981.99;;;;
2019/09/19 04:52:30;;;;;;;4.15;2.35;;;;;;;3.92;86.84863;95988.1;;;;
2019/09/19 04:53:32;;;;;;;4.15;2.35;;;;;;;3.92;86.84863;95988.1;;;;
2019/09/19 04:54:34;;;;;;;4.15;2.35;;;;;;;3.92;86.84863;95988.1;;;;
2019/09/19 04:55:35;;;;;;;4.15;2.35;;;;;;;3.92;86.84863;95988.1;;;;
2019/09/19 04:56:36;;;;;;;4.15;2.35;;;;;;;3.92;86.84863;95988.1;;;;
2019/09/19 04:57:37;;;;;;;4.15;2.35;;;;;;;3.92;86.84863;95988.1;;;;
2019/09/19 04:58:39;;;;;;;4.15;2.35;;;;;;;3.92;86.84863;95988.1;;;;
2019/09/19 04:59:41;;;;;;;4.15;2.35;;;;;;;3.92;86.84863;95988.1;;;;
2019/09/19 05:00:47;;;;;;;4.15;2.35;;;;;;;3.92;86.84863;95988.1;;;;
2019/09/19 05:01:48;;;;;;;4.15;2.35;;;;;;;3.92;86.84863;95988.1;;;;
2019/09/19 05:02:50;;;;;;;4.15;2.35;;;;;;;3.92;86.84863;95988.1;;;;
2019/09/19 05:03:51;;;;;;;7.699999;2.5;;;;;;;3.93;86.48242;96001.76;;;;
2019/09/19 05:04:52;;;;;;;7.699999;2.5;;;;;;;3.93;86.48242;96001.76;;;;
2019/09/19 05:05:53;;;;;;;7.699999;2.5;;;;;;;3.93;86.48242;96001.76;;;;
2019/09/19 05:06:54;;;;;;;7.699999;2.5;;;;;;;3.93;86.48242;96001.76;;;;
2019/09/19 05:07:55;;;;;;;7.699999;2.5;;;;;;;3.93;86.48242;96001.76;;;;
2019/09/19 05:09:14;;;;;;;7.699999;2.5;;;;;;;3.93;86.48242;96001.76;;;;
2019/09/19 05:10:16;;;;;;;7.699999;2.5;;;;;;;3.93;86.48242;96001.76;;;;
2019/09/19 05:11:20;;;;;;;7.699999;2.5;;;;;;;3.93;86.48242;96001.76;;;;
2019/09/19 05:12:21;;;;;;;7.699999;2.5;;;;;;;3.93;86.48242;96001.76;;;;
2019/09/19 05:13:22;;;;;;;7.699999;2.5;;;;;;;3.93;86.48242;96001.76;;;;
2019/09/19 05:14:23;;;;;;;6.550001;2.4;;;;;;;4.05;86.13086;96017.63;;;;
2019/09/19 05:15:25;;;;;;;6.550001;2.4;;;;;;;4.05;86.13086;96017.63;;;;
2019/09/19 05:16:32;;;;;;;6.550001;2.4;;;;;;;4.05;86.13086;96017.63;;;;
2019/09/19 05:17:34;;;;;;;6.550001;2.4;;;;;;;4.05;86.13086;96017.63;;;;
2019/09/19 05:18:35;;;;;;;6.550001;2.4;;;;;;;4.05;86.13086;96017.63;;;;
2019/09/19 05:19:36;;;;;;;6.550001;2.4;;;;;;;4.05;86.13086;96017.63;;;;
2019/09/19 05:20:38;;;;;;;6.550001;2.4;;;;;;;4.05;86.13086;96017.63;;;;
2019/09/19 05:22:13;;;;;;;6.550001;2.4;;;;;;;4.05;86.13086;96017.63;;;;
2019/09/19 05:23:14;;;;;;;6.550001;2.4;;;;;;;4.05;86.13086;96017.63;;;;
2019/09/19 05:24:15;;;;;;;8.900001;2.9;;;;;;;4.16;85.76367;96024.39;;;;
2019/09/19 05:25:20;;;;;;;8.900001;2.9;;;;;;;4.16;85.76367;96024.39;;;;
2019/09/19 05:26:22;;;;;;;8.900001;2.9;;;;;;;4.16;85.76367;96024.39;;;;
2019/09/19 05:27:23;;;;;;;10.4;3.1;;;;;;;4.26;86.75879;96020.99;;;;
2019/09/19 05:28:24;;;;;;;10.4;3.1;;;;;;;4.26;86.75879;96020.99;;;;
2019/09/19 05:29:25;;;;;;;10.4;3.1;;;;;;;4.26;86.75879;96020.99;;;;
2019/09/19 05:30:28;;;;;;;10.4;3.1;;;;;;;4.26;86.75879;96020.99;;;;
2019/09/19 05:31:34;;;;;;;10.4;3.1;;;;;;;4.26;86.75879;96020.99;;;;
2019/09/19 05:32:42;;;;;;;10.4;3.1;;;;;;;4.26;86.75879;96020.99;;;;
2019/09/19 05:33:43;;;;;;;10.4;3.1;;;;;;;4.26;86.75879;96020.99;;;;
2019/09/19 05:34:44;;;;;;;10.4;3.1;;;;;;;4.26;86.75879;96020.99;;;;
2019/09/19 05:35:45;;;;;;;10.4;3.1;;;;;;;4.26;86.75879;96020.99;;;;
2019/09/19 05:36:46;;;;;;;10.4;3.1;;;;;;;4.26;86.75879;96020.99;;;;
2019/09/19 05:37:48;;;;;;;12.6;3.75;;;;;;;4.55;85.9873;96027.73;;;;
2019/09/19 05:38:49;;;;;;;12.6;3.75;;;;;;;4.55;85.9873;96027.73;;;;
2019/09/19 05:39:50;;;;;;;12.6;3.75;;;;;;;4.55;85.9873;96027.73;;;;
2019/09/19 05:40:51;;;;;;;12.6;3.75;;;;;;;4.55;85.9873;96027.73;;;;
2019/09/19 05:41:52;;;;;;;12.6;3.75;;;;;;;4.55;85.9873;96027.73;;;;
2019/09/19 05:42:54;;;;;;;12.6;3.75;;;;;;;4.55;85.9873;96027.73;;;;
2019/09/19 05:43:55;;;;;;;12.6;3.75;;;;;;;4.55;85.9873;96027.73;;;;
2019/09/19 05:44:56;;;;;;;12.6;3.75;;;;;;;4.55;85.9873;96027.73;;;;
2019/09/19 05:45:57;;;;;;;12.6;3.75;;;;;;;4.55;85.9873;96027.73;;;;
2019/09/19 05:46:59;;;;;;;12.6;3.75;;;;;;;4.55;85.9873;96027.73;;;;
2019/09/19 05:48:00;;;;;;;12.6;3.75;;;;;;;4.55;85.9873;96027.73;;;;
2019/09/19 05:49:01;;;;;;;10.65;3.4;;;;;;;4.96;85.36523;96037.98;;;;
2019/09/19 05:50:03;;;;;;;10.65;3.4;;;;;;;4.96;85.36523;96037.98;;;;
2019/09/19 05:51:48;;;;;;;10.65;3.4;;;;;;;4.96;85.36523;96037.98;;;;
2019/09/19 05:52:50;;;;;;;10.65;3.4;;;;;;;4.96;85.36523;96037.98;;;;
2019/09/19 05:53:52;;;;;;;10.65;3.4;;;;;;;4.96;85.36523;96037.98;;;;
2019/09/19 05:54:53;;;;;;;10.65;3.4;;;;;;;4.96;85.36523;96037.98;;;;
2019/09/19 05:55:54;;;;;;;10.65;3.4;;;;;;;4.96;85.36523;96037.98;;;;
2019/09/19 05:56:56;;;;;;;10.65;3.4;;;;;;;4.96;85.36523;96037.98;;;;
2019/09/19 05:57:57;;;;;;;10.65;3.4;;;;;;;4.96;85.36523;96037.98;;;;
2019/09/19 05:58:58;;;;;;;8.35;3.7;;;;;;;5.29;84.65039;96044.2;;;;
2019/09/19 06:00:20;;;;;;;8.35;3.7;;;;;;;5.29;84.65039;96044.2;;;;
2019/09/19 06:01:37;;;;;;;7.850001;3.55;;;;;;;5.41;85.48535;96044.09;;;;
2019/09/19 06:02:39;;;;;;;7.850001;3.55;;;;;;;5.41;85.48535;96044.09;;;;
2019/09/19 06:03:40;;;;;;;7.850001;3.55;;;;;;;5.41;85.48535;96044.09;;;;
2019/09/19 06:04:41;;;;;;;7.850001;3.55;;;;;;;5.41;85.48535;96044.09;;;;
2019/09/19 06:05:42;;;;;;;7.850001;3.55;;;;;;;5.41;85.48535;96044.09;;;;
2019/09/19 06:06:44;;;;;;;7.850001;3.55;;;;;;;5.41;85.48535;96044.09;;;;
2019/09/19 06:07:45;;;;;;;7.850001;3.55;;;;;;;5.41;85.48535;96044.09;;;;
2019/09/19 06:08:46;;;;;;;7.850001;3.55;;;;;;;5.41;85.48535;96044.09;;;;
2019/09/19 06:09:48;;;;;;;7.850001;3.55;;;;;;;5.41;85.48535;96044.09;;;;